sensor_id;sensor_type;location;lat;lon;timestamp;temperature;humidity
54938;DHT22;52756;52.826;6.214;2023-08-17T00:01:08;18.90;64.10
54938;DHT22;52756;52.826;6.214;2023-08-17T00:03:34;18.90;64.20
54938;DHT22;52756;52.826;6.214;2023-08-17T00:05:59;18.90;64.20
54938;DHT22;52756;52.826;6.214;2023-08-17T00:08:25;18.90;64.30
54938;DHT22;52756;52.826;6.214;2023-08-17T00:10:51;18.90;64.40
54938;DHT22;52756;52.826;6.214;2023-08-17T00:13:17;18.90;64.40
54938;DHT22;52756;52.826;6.214;2023-08-17T00:15:42;18.90;64.50
54938;DHT22;52756;52.826;6.214;2023-08-17T00:18:10;18.90;64.50
54938;DHT22;52756;52.826;6.214;2023-08-17T00:20:36;18.90;64.70
54938;DHT22;52756;52.826;6.214;2023-08-17T00:23:01;18.90;64.70
54938;DHT22;52756;52.826;6.214;2023-08-17T00:25:27;18.90;64.70
54938;DHT22;52756;52.826;6.214;2023-08-17T00:27:53;18.90;64.80
54938;DHT22;52756;52.826;6.214;2023-08-17T00:30:18;18.90;64.80
54938;DHT22;52756;52.826;6.214;2023-08-17T00:32:44;18.80;64.80
54938;DHT22;52756;52.826;6.214;2023-08-17T00:35:10;18.80;64.90
54938;DHT22;52756;52.826;6.214;2023-08-17T00:37:35;18.80;64.90
54938;DHT22;52756;52.826;6.214;2023-08-17T00:40:01;18.80;64.90
54938;DHT22;52756;52.826;6.214;2023-08-17T00:42:27;18.80;64.90
54938;DHT22;52756;52.826;6.214;2023-08-17T00:44:52;18.80;65.00
54938;DHT22;52756;52.826;6.214;2023-08-17T00:47:18;18.80;65.10
54938;DHT22;52756;52.826;6.214;2023-08-17T00:49:44;18.80;65.20
54938;DHT22;52756;52.826;6.214;2023-08-17T00:52:10;18.70;65.10
54938;DHT22;52756;52.826;6.214;2023-08-17T00:54:36;18.70;65.20
54938;DHT22;52756;52.826;6.214;2023-08-17T00:57:02;18.70;65.30
54938;DHT22;52756;52.826;6.214;2023-08-17T00:59:31;18.70;65.30
54938;DHT22;52756;52.826;6.214;2023-08-17T01:01:57;18.70;65.40
54938;DHT22;52756;52.826;6.214;2023-08-17T01:04:23;18.70;65.40
54938;DHT22;52756;52.826;6.214;2023-08-17T01:06:49;18.70;65.50
54938;DHT22;52756;52.826;6.214;2023-08-17T01:09:15;18.70;65.50
54938;DHT22;52756;52.826;6.214;2023-08-17T01:12:44;18.60;65.50
54938;DHT22;52756;52.826;6.214;2023-08-17T01:17:40;18.60;65.50
54938;DHT22;52756;52.826;6.214;2023-08-17T01:20:08;18.60;65.40
54938;DHT22;52756;52.826;6.214;2023-08-17T01:22:42;18.60;65.60
54938;DHT22;52756;52.826;6.214;2023-08-17T01:25:10;18.60;65.60
54938;DHT22;52756;52.826;6.214;2023-08-17T01:27:44;18.60;65.60
54938;DHT22;52756;52.826;6.214;2023-08-17T01:30:13;18.60;65.60
54938;DHT22;52756;52.826;6.214;2023-08-17T01:33:44;18.50;65.60
54938;DHT22;52756;52.826;6.214;2023-08-17T01:36:10;18.50;65.50
54938;DHT22;52756;52.826;6.214;2023-08-17T01:38:38;18.50;65.50
54938;DHT22;52756;52.826;6.214;2023-08-17T01:41:06;18.50;65.60
54938;DHT22;52756;52.826;6.214;2023-08-17T01:43:39;18.50;65.70
54938;DHT22;52756;52.826;6.214;2023-08-17T01:46:07;18.50;65.70
54938;DHT22;52756;52.826;6.214;2023-08-17T01:48:33;18.50;65.80
54938;DHT22;52756;52.826;6.214;2023-08-17T01:50:58;18.50;65.80
54938;DHT22;52756;52.826;6.214;2023-08-17T01:53:24;18.40;65.80
54938;DHT22;52756;52.826;6.214;2023-08-17T01:55:50;18.40;65.80
54938;DHT22;52756;52.826;6.214;2023-08-17T01:58:15;18.40;65.80
54938;DHT22;52756;52.826;6.214;2023-08-17T02:00:41;18.40;65.90
54938;DHT22;52756;52.826;6.214;2023-08-17T02:03:07;18.40;65.90
54938;DHT22;52756;52.826;6.214;2023-08-17T02:05:33;18.40;65.90
54938;DHT22;52756;52.826;6.214;2023-08-17T02:07:58;18.40;65.90
54938;DHT22;52756;52.826;6.214;2023-08-17T02:10:24;18.40;65.90
54938;DHT22;52756;52.826;6.214;2023-08-17T02:12:50;18.40;65.90
54938;DHT22;52756;52.826;6.214;2023-08-17T02:15:16;18.40;65.90
54938;DHT22;52756;52.826;6.214;2023-08-17T02:17:41;18.40;65.90
54938;DHT22;52756;52.826;6.214;2023-08-17T02:20:07;18.40;66.00
54938;DHT22;52756;52.826;6.214;2023-08-17T02:22:34;18.40;66.00
54938;DHT22;52756;52.826;6.214;2023-08-17T02:25:00;18.30;65.90
54938;DHT22;52756;52.826;6.214;2023-08-17T02:27:26;18.30;66.00
54938;DHT22;52756;52.826;6.214;2023-08-17T02:29:51;18.30;66.00
54938;DHT22;52756;52.826;6.214;2023-08-17T02:32:17;18.30;66.00
54938;DHT22;52756;52.826;6.214;2023-08-17T02:34:43;18.20;66.00
54938;DHT22;52756;52.826;6.214;2023-08-17T02:37:08;18.20;66.10
54938;DHT22;52756;52.826;6.214;2023-08-17T02:39:34;18.20;66.10
54938;DHT22;52756;52.826;6.214;2023-08-17T02:42:00;18.20;66.10
54938;DHT22;52756;52.826;6.214;2023-08-17T02:44:25;18.20;66.10
54938;DHT22;52756;52.826;6.214;2023-08-17T02:46:54;18.20;66.30
54938;DHT22;52756;52.826;6.214;2023-08-17T02:49:19;18.20;66.30
54938;DHT22;52756;52.826;6.214;2023-08-17T02:51:45;18.20;66.20
54938;DHT22;52756;52.826;6.214;2023-08-17T02:54:11;18.20;66.20
54938;DHT22;52756;52.826;6.214;2023-08-17T02:56:37;18.20;66.40
54938;DHT22;52756;52.826;6.214;2023-08-17T02:59:02;18.10;66.30
54938;DHT22;52756;52.826;6.214;2023-08-17T03:01:28;18.10;66.50
54938;DHT22;52756;52.826;6.214;2023-08-17T03:03:55;18.00;66.50
54938;DHT22;52756;52.826;6.214;2023-08-17T03:06:21;18.00;66.60
54938;DHT22;52756;52.826;6.214;2023-08-17T03:08:46;18.00;66.70
54938;DHT22;52756;52.826;6.214;2023-08-17T03:11:12;18.00;66.70
54938;DHT22;52756;52.826;6.214;2023-08-17T03:13:38;18.00;66.70
54938;DHT22;52756;52.826;6.214;2023-08-17T03:16:03;18.00;66.80
54938;DHT22;52756;52.826;6.214;2023-08-17T03:18:29;18.00;66.90
54938;DHT22;52756;52.826;6.214;2023-08-17T03:20:55;17.90;66.80
54938;DHT22;52756;52.826;6.214;2023-08-17T03:23:20;17.90;67.00
54938;DHT22;52756;52.826;6.214;2023-08-17T03:25:50;17.90;67.10
54938;DHT22;52756;52.826;6.214;2023-08-17T03:28:16;17.90;67.30
54938;DHT22;52756;52.826;6.214;2023-08-17T03:30:42;17.80;67.20
54938;DHT22;52756;52.826;6.214;2023-08-17T03:33:08;17.80;67.80
54938;DHT22;52756;52.826;6.214;2023-08-17T03:35:34;17.80;67.50
54938;DHT22;52756;52.826;6.214;2023-08-17T03:38:00;17.80;67.70
54938;DHT22;52756;52.826;6.214;2023-08-17T03:40:25;17.70;67.80
54938;DHT22;52756;52.826;6.214;2023-08-17T03:42:54;17.60;67.80
54938;DHT22;52756;52.826;6.214;2023-08-17T03:45:20;17.60;68.00
54938;DHT22;52756;52.826;6.214;2023-08-17T03:47:45;17.60;68.20
54938;DHT22;52756;52.826;6.214;2023-08-17T03:50:11;17.60;68.40
54938;DHT22;52756;52.826;6.214;2023-08-17T03:52:37;17.60;68.50
54938;DHT22;52756;52.826;6.214;2023-08-17T03:55:03;17.50;68.50
54938;DHT22;52756;52.826;6.214;2023-08-17T03:57:32;17.50;68.50
54938;DHT22;52756;52.826;6.214;2023-08-17T03:59:57;17.50;68.50
54938;DHT22;52756;52.826;6.214;2023-08-17T04:02:23;17.50;68.60
54938;DHT22;52756;52.826;6.214;2023-08-17T04:04:49;17.50;68.60
54938;DHT22;52756;52.826;6.214;2023-08-17T04:07:21;17.50;68.70
54938;DHT22;52756;52.826;6.214;2023-08-17T04:09:47;17.50;68.80
54938;DHT22;52756;52.826;6.214;2023-08-17T04:12:13;17.50;68.70
54938;DHT22;52756;52.826;6.214;2023-08-17T04:14:39;17.50;68.80
54938;DHT22;52756;52.826;6.214;2023-08-17T04:17:05;17.50;69.00
54938;DHT22;52756;52.826;6.214;2023-08-17T04:19:30;17.50;68.90
54938;DHT22;52756;52.826;6.214;2023-08-17T04:21:56;17.50;69.00
54938;DHT22;52756;52.826;6.214;2023-08-17T04:24:22;17.50;69.10
54938;DHT22;52756;52.826;6.214;2023-08-17T04:26:47;17.50;69.10
54938;DHT22;52756;52.826;6.214;2023-08-17T04:29:13;17.50;69.10
54938;DHT22;52756;52.826;6.214;2023-08-17T04:31:39;17.60;69.10
54938;DHT22;52756;52.826;6.214;2023-08-17T04:34:04;17.50;69.10
54938;DHT22;52756;52.826;6.214;2023-08-17T04:36:30;17.60;69.30
54938;DHT22;52756;52.826;6.214;2023-08-17T04:38:56;17.60;69.30
54938;DHT22;52756;52.826;6.214;2023-08-17T04:41:21;17.60;69.40
54938;DHT22;52756;52.826;6.214;2023-08-17T04:43:47;17.50;69.40
54938;DHT22;52756;52.826;6.214;2023-08-17T04:46:14;17.60;69.40
54938;DHT22;52756;52.826;6.214;2023-08-17T04:48:40;17.50;69.90
54938;DHT22;52756;52.826;6.214;2023-08-17T04:51:06;17.50;69.50
54938;DHT22;52756;52.826;6.214;2023-08-17T04:53:32;17.50;69.50
54938;DHT22;52756;52.826;6.214;2023-08-17T04:55:58;17.50;69.70
54938;DHT22;52756;52.826;6.214;2023-08-17T04:58:24;17.50;69.60
54938;DHT22;52756;52.826;6.214;2023-08-17T05:00:51;17.50;69.60
54938;DHT22;52756;52.826;6.214;2023-08-17T05:03:16;17.50;69.80
54938;DHT22;52756;52.826;6.214;2023-08-17T05:05:42;17.50;69.90
54938;DHT22;52756;52.826;6.214;2023-08-17T05:08:08;17.50;69.90
54938;DHT22;52756;52.826;6.214;2023-08-17T05:10:33;17.60;69.90
54938;DHT22;52756;52.826;6.214;2023-08-17T05:12:59;17.60;70.20
54938;DHT22;52756;52.826;6.214;2023-08-17T05:15:25;17.50;70.50
54938;DHT22;52756;52.826;6.214;2023-08-17T05:17:50;17.60;70.60
54938;DHT22;52756;52.826;6.214;2023-08-17T05:20:16;17.60;70.80
54938;DHT22;52756;52.826;6.214;2023-08-17T05:22:42;17.60;71.00
54938;DHT22;52756;52.826;6.214;2023-08-17T05:25:08;17.50;71.10
54938;DHT22;52756;52.826;6.214;2023-08-17T05:27:34;17.60;71.40
54938;DHT22;52756;52.826;6.214;2023-08-17T05:30:00;17.50;71.50
54938;DHT22;52756;52.826;6.214;2023-08-17T05:32:26;17.50;71.60
54938;DHT22;52756;52.826;6.214;2023-08-17T05:34:51;17.50;71.90
54938;DHT22;52756;52.826;6.214;2023-08-17T05:37:17;17.50;72.10
54938;DHT22;52756;52.826;6.214;2023-08-17T05:39:43;17.50;72.30
54938;DHT22;52756;52.826;6.214;2023-08-17T05:42:09;17.50;72.50
54938;DHT22;52756;52.826;6.214;2023-08-17T05:44:35;17.50;72.70
54938;DHT22;52756;52.826;6.214;2023-08-17T05:47:01;17.50;72.80
54938;DHT22;52756;52.826;6.214;2023-08-17T05:49:26;17.50;73.00
54938;DHT22;52756;52.826;6.214;2023-08-17T05:51:52;17.50;73.20
54938;DHT22;52756;52.826;6.214;2023-08-17T05:54:18;17.50;73.40
54938;DHT22;52756;52.826;6.214;2023-08-17T05:56:43;17.50;73.70
54938;DHT22;52756;52.826;6.214;2023-08-17T05:59:13;17.50;73.90
54938;DHT22;52756;52.826;6.214;2023-08-17T06:01:39;17.50;74.50
54938;DHT22;52756;52.826;6.214;2023-08-17T06:04:06;17.60;74.30
54938;DHT22;52756;52.826;6.214;2023-08-17T06:06:31;17.70;74.30
54938;DHT22;52756;52.826;6.214;2023-08-17T06:08:57;17.80;74.20
54938;DHT22;52756;52.826;6.214;2023-08-17T06:11:22;17.90;74.10
54938;DHT22;52756;52.826;6.214;2023-08-17T06:13:49;18.00;73.90
54938;DHT22;52756;52.826;6.214;2023-08-17T06:16:15;18.20;73.50
54938;DHT22;52756;52.826;6.214;2023-08-17T06:18:41;18.40;73.30
54938;DHT22;52756;52.826;6.214;2023-08-17T06:21:07;18.60;72.70
54938;DHT22;52756;52.826;6.214;2023-08-17T06:23:33;18.80;72.50
54938;DHT22;52756;52.826;6.214;2023-08-17T06:25:59;19.00;71.60
54938;DHT22;52756;52.826;6.214;2023-08-17T06:28:25;19.10;70.90
54938;DHT22;52756;52.826;6.214;2023-08-17T06:30:53;19.30;70.00
54938;DHT22;52756;52.826;6.214;2023-08-17T06:33:19;19.40;69.10
54938;DHT22;52756;52.826;6.214;2023-08-17T06:35:45;19.50;69.00
54938;DHT22;52756;52.826;6.214;2023-08-17T06:38:10;19.60;68.20
54938;DHT22;52756;52.826;6.214;2023-08-17T06:40:36;19.70;67.90
54938;DHT22;52756;52.826;6.214;2023-08-17T06:43:02;19.70;67.40
54938;DHT22;52756;52.826;6.214;2023-08-17T06:45:28;19.70;67.00
54938;DHT22;52756;52.826;6.214;2023-08-17T06:47:54;19.70;66.80
54938;DHT22;52756;52.826;6.214;2023-08-17T06:50:19;19.70;66.80
54938;DHT22;52756;52.826;6.214;2023-08-17T06:52:45;19.70;66.50
54938;DHT22;52756;52.826;6.214;2023-08-17T06:55:11;19.60;66.30
54938;DHT22;52756;52.826;6.214;2023-08-17T06:57:36;19.50;66.30
54938;DHT22;52756;52.826;6.214;2023-08-17T07:00:02;19.50;66.70
54938;DHT22;52756;52.826;6.214;2023-08-17T07:02:31;19.40;66.80
54938;DHT22;52756;52.826;6.214;2023-08-17T07:04:57;19.40;67.10
54938;DHT22;52756;52.826;6.214;2023-08-17T07:07:22;19.30;67.20
54938;DHT22;52756;52.826;6.214;2023-08-17T07:09:48;19.30;67.40
54938;DHT22;52756;52.826;6.214;2023-08-17T07:12:13;19.30;67.50
54938;DHT22;52756;52.826;6.214;2023-08-17T07:14:39;19.30;67.50
54938;DHT22;52756;52.826;6.214;2023-08-17T07:17:05;19.20;67.60
54938;DHT22;52756;52.826;6.214;2023-08-17T07:19:30;19.20;67.90
54938;DHT22;52756;52.826;6.214;2023-08-17T07:21:56;19.20;68.00
54938;DHT22;52756;52.826;6.214;2023-08-17T07:24:22;19.10;68.10
54938;DHT22;52756;52.826;6.214;2023-08-17T07:26:47;19.10;68.30
54938;DHT22;52756;52.826;6.214;2023-08-17T07:29:13;19.00;68.40
54938;DHT22;52756;52.826;6.214;2023-08-17T07:31:39;19.10;68.50
54938;DHT22;52756;52.826;6.214;2023-08-17T07:34:08;19.10;69.20
54938;DHT22;52756;52.826;6.214;2023-08-17T07:36:34;19.10;69.60
54938;DHT22;52756;52.826;6.214;2023-08-17T07:38:59;19.20;69.70
54938;DHT22;52756;52.826;6.214;2023-08-17T07:41:26;19.30;69.40
54938;DHT22;52756;52.826;6.214;2023-08-17T07:43:52;19.40;68.80
54938;DHT22;52756;52.826;6.214;2023-08-17T07:46:17;19.50;68.50
54938;DHT22;52756;52.826;6.214;2023-08-17T07:48:43;19.60;68.90
54938;DHT22;52756;52.826;6.214;2023-08-17T07:51:09;19.80;68.90
54938;DHT22;52756;52.826;6.214;2023-08-17T07:53:34;20.00;68.30
54938;DHT22;52756;52.826;6.214;2023-08-17T07:56:00;20.10;66.90
54938;DHT22;52756;52.826;6.214;2023-08-17T07:58:26;20.20;66.50
54938;DHT22;52756;52.826;6.214;2023-08-17T08:00:51;20.30;65.80
54938;DHT22;52756;52.826;6.214;2023-08-17T08:03:17;20.30;65.10
54938;DHT22;52756;52.826;6.214;2023-08-17T08:05:42;20.30;64.90
54938;DHT22;52756;52.826;6.214;2023-08-17T08:08:08;20.30;64.60
54938;DHT22;52756;52.826;6.214;2023-08-17T08:10:34;20.30;64.40
54938;DHT22;52756;52.826;6.214;2023-08-17T08:12:59;20.30;64.20
54938;DHT22;52756;52.826;6.214;2023-08-17T08:15:25;20.30;63.60
54938;DHT22;52756;52.826;6.214;2023-08-17T08:17:51;20.30;63.90
54938;DHT22;52756;52.826;6.214;2023-08-17T08:20:17;20.30;64.20
54938;DHT22;52756;52.826;6.214;2023-08-17T08:22:42;20.20;63.80
54938;DHT22;52756;52.826;6.214;2023-08-17T08:25:08;20.20;63.40
54938;DHT22;52756;52.826;6.214;2023-08-17T08:27:34;20.30;63.00
54938;DHT22;52756;52.826;6.214;2023-08-17T08:29:59;20.20;62.80
54938;DHT22;52756;52.826;6.214;2023-08-17T08:32:25;20.30;62.90
54938;DHT22;52756;52.826;6.214;2023-08-17T08:34:51;20.30;62.90
54938;DHT22;52756;52.826;6.214;2023-08-17T08:37:16;20.30;62.90
54938;DHT22;52756;52.826;6.214;2023-08-17T08:39:49;20.30;62.30
54938;DHT22;52756;52.826;6.214;2023-08-17T08:42:19;20.40;62.30
54938;DHT22;52756;52.826;6.214;2023-08-17T08:44:45;20.40;62.80
54938;DHT22;52756;52.826;6.214;2023-08-17T08:47:12;20.40;63.20
54938;DHT22;52756;52.826;6.214;2023-08-17T08:49:48;20.40;62.90
54938;DHT22;52756;52.826;6.214;2023-08-17T08:52:19;20.50;62.90
54938;DHT22;52756;52.826;6.214;2023-08-17T08:54:50;20.60;63.00
54938;DHT22;52756;52.826;6.214;2023-08-17T08:57:17;20.70;63.10
54938;DHT22;52756;52.826;6.214;2023-08-17T08:59:43;20.80;62.70
54938;DHT22;52756;52.826;6.214;2023-08-17T09:02:15;20.90;62.00
54938;DHT22;52756;52.826;6.214;2023-08-17T09:04:43;20.90;61.60
54938;DHT22;52756;52.826;6.214;2023-08-17T09:07:12;21.00;61.70
54938;DHT22;52756;52.826;6.214;2023-08-17T09:09:39;21.00;61.00
54938;DHT22;52756;52.826;6.214;2023-08-17T09:12:07;21.00;61.00
54938;DHT22;52756;52.826;6.214;2023-08-17T09:14:35;21.00;60.90
54938;DHT22;52756;52.826;6.214;2023-08-17T09:17:00;21.00;61.00
54938;DHT22;52756;52.826;6.214;2023-08-17T09:19:26;21.10;61.00
54938;DHT22;52756;52.826;6.214;2023-08-17T09:21:53;21.10;61.00
54938;DHT22;52756;52.826;6.214;2023-08-17T09:24:19;21.10;60.70
54938;DHT22;52756;52.826;6.214;2023-08-17T09:26:44;21.10;60.80
54938;DHT22;52756;52.826;6.214;2023-08-17T09:29:18;21.20;60.70
54938;DHT22;52756;52.826;6.214;2023-08-17T09:31:44;21.20;61.00
54938;DHT22;52756;52.826;6.214;2023-08-17T09:34:10;21.30;61.10
54938;DHT22;52756;52.826;6.214;2023-08-17T09:36:36;21.40;61.40
54938;DHT22;52756;52.826;6.214;2023-08-17T09:39:03;21.50;61.00
54938;DHT22;52756;52.826;6.214;2023-08-17T09:41:29;21.60;60.40
54938;DHT22;52756;52.826;6.214;2023-08-17T09:43:55;21.60;59.90
54938;DHT22;52756;52.826;6.214;2023-08-17T09:46:21;21.70;59.90
54938;DHT22;52756;52.826;6.214;2023-08-17T09:48:47;21.70;59.80
54938;DHT22;52756;52.826;6.214;2023-08-17T09:51:17;21.70;59.90
54938;DHT22;52756;52.826;6.214;2023-08-17T09:53:43;21.70;59.40
54938;DHT22;52756;52.826;6.214;2023-08-17T09:56:09;21.70;59.50
54938;DHT22;52756;52.826;6.214;2023-08-17T09:58:38;21.70;60.00
54938;DHT22;52756;52.826;6.214;2023-08-17T10:01:04;21.60;59.70
54938;DHT22;52756;52.826;6.214;2023-08-17T10:03:34;21.60;60.00
54938;DHT22;52756;52.826;6.214;2023-08-17T10:06:09;21.60;60.40
54938;DHT22;52756;52.826;6.214;2023-08-17T10:08:47;21.60;60.30
54938;DHT22;52756;52.826;6.214;2023-08-17T10:11:18;21.60;60.00
54938;DHT22;52756;52.826;6.214;2023-08-17T10:13:52;21.60;60.20
54938;DHT22;52756;52.826;6.214;2023-08-17T10:18:55;21.60;60.60
54938;DHT22;52756;52.826;6.214;2023-08-17T10:21:50;21.60;60.80
54938;DHT22;52756;52.826;6.214;2023-08-17T10:24:19;21.60;59.90
54938;DHT22;52756;52.826;6.214;2023-08-17T10:26:45;21.60;60.40
54938;DHT22;52756;52.826;6.214;2023-08-17T10:29:11;21.60;60.50
54938;DHT22;52756;52.826;6.214;2023-08-17T10:31:38;21.60;60.90
54938;DHT22;52756;52.826;6.214;2023-08-17T10:34:04;21.60;61.20
54938;DHT22;52756;52.826;6.214;2023-08-17T10:36:31;21.70;61.30
54938;DHT22;52756;52.826;6.214;2023-08-17T10:39:27;21.70;61.40
54938;DHT22;52756;52.826;6.214;2023-08-17T10:41:53;21.80;60.60
54938;DHT22;52756;52.826;6.214;2023-08-17T10:44:45;21.80;60.20
54938;DHT22;52756;52.826;6.214;2023-08-17T10:47:31;21.80;60.30
54938;DHT22;52756;52.826;6.214;2023-08-17T10:50:24;21.90;60.30
54938;DHT22;52756;52.826;6.214;2023-08-17T10:52:50;21.90;60.70
54938;DHT22;52756;52.826;6.214;2023-08-17T10:55:41;22.00;61.10
54938;DHT22;52756;52.826;6.214;2023-08-17T10:58:07;22.10;60.20
54938;DHT22;52756;52.826;6.214;2023-08-17T11:00:38;22.10;60.30
54938;DHT22;52756;52.826;6.214;2023-08-17T11:03:06;22.10;59.90
54938;DHT22;52756;52.826;6.214;2023-08-17T11:08:29;22.10;60.40
54938;DHT22;52756;52.826;6.214;2023-08-17T11:13:33;22.20;60.80
54938;DHT22;52756;52.826;6.214;2023-08-17T11:16:00;22.20;60.30
54938;DHT22;52756;52.826;6.214;2023-08-17T11:18:26;22.20;59.70
54938;DHT22;52756;52.826;6.214;2023-08-17T11:20:53;22.20;60.20
54938;DHT22;52756;52.826;6.214;2023-08-17T11:23:19;22.30;61.20
54938;DHT22;52756;52.826;6.214;2023-08-17T11:25:44;22.30;60.90
54938;DHT22;52756;52.826;6.214;2023-08-17T11:28:10;22.40;60.90
54938;DHT22;52756;52.826;6.214;2023-08-17T11:30:37;22.40;60.80
54938;DHT22;52756;52.826;6.214;2023-08-17T11:33:05;22.50;61.10
54938;DHT22;52756;52.826;6.214;2023-08-17T11:35:31;22.50;60.90
54938;DHT22;52756;52.826;6.214;2023-08-17T11:37:57;22.60;60.80
54938;DHT22;52756;52.826;6.214;2023-08-17T11:40:23;22.70;60.80
54938;DHT22;52756;52.826;6.214;2023-08-17T11:42:50;22.70;59.70
54938;DHT22;52756;52.826;6.214;2023-08-17T11:45:16;22.80;60.00
54938;DHT22;52756;52.826;6.214;2023-08-17T11:47:42;22.80;60.30
54938;DHT22;52756;52.826;6.214;2023-08-17T11:50:10;22.80;59.70
54938;DHT22;52756;52.826;6.214;2023-08-17T11:52:36;22.80;59.20
54938;DHT22;52756;52.826;6.214;2023-08-17T11:55:06;22.80;59.10
54938;DHT22;52756;52.826;6.214;2023-08-17T11:57:33;22.80;59.30
54938;DHT22;52756;52.826;6.214;2023-08-17T12:00:00;22.80;59.50
54938;DHT22;52756;52.826;6.214;2023-08-17T12:02:30;22.80;59.60
54938;DHT22;52756;52.826;6.214;2023-08-17T12:04:56;22.80;60.20
54938;DHT22;52756;52.826;6.214;2023-08-17T12:07:25;22.80;59.90
54938;DHT22;52756;52.826;6.214;2023-08-17T12:09:52;22.80;59.70
54938;DHT22;52756;52.826;6.214;2023-08-17T12:12:19;22.70;59.50
54938;DHT22;52756;52.826;6.214;2023-08-17T12:14:46;22.70;60.20
54938;DHT22;52756;52.826;6.214;2023-08-17T12:17:20;22.70;60.20
54938;DHT22;52756;52.826;6.214;2023-08-17T12:19:50;22.60;60.60
54938;DHT22;52756;52.826;6.214;2023-08-17T12:22:16;22.60;60.60
54938;DHT22;52756;52.826;6.214;2023-08-17T12:24:42;22.60;60.60
54938;DHT22;52756;52.826;6.214;2023-08-17T12:27:09;22.60;60.40
54938;DHT22;52756;52.826;6.214;2023-08-17T12:29:49;22.60;60.10
54938;DHT22;52756;52.826;6.214;2023-08-17T12:32:16;22.60;60.20
54938;DHT22;52756;52.826;6.214;2023-08-17T12:34:42;22.60;60.40
54938;DHT22;52756;52.826;6.214;2023-08-17T12:37:09;22.60;60.60
54938;DHT22;52756;52.826;6.214;2023-08-17T12:39:35;22.60;60.80
54938;DHT22;52756;52.826;6.214;2023-08-17T12:42:02;22.60;61.00
54938;DHT22;52756;52.826;6.214;2023-08-17T12:44:28;22.60;60.70
54938;DHT22;52756;52.826;6.214;2023-08-17T12:46:53;22.60;60.90
54938;DHT22;52756;52.826;6.214;2023-08-17T12:49:19;22.50;61.70
54938;DHT22;52756;52.826;6.214;2023-08-17T12:51:45;22.50;61.60
54938;DHT22;52756;52.826;6.214;2023-08-17T12:54:10;22.50;62.10
54938;DHT22;52756;52.826;6.214;2023-08-17T12:56:36;22.50;62.10
54938;DHT22;52756;52.826;6.214;2023-08-17T12:59:02;22.50;62.30
54938;DHT22;52756;52.826;6.214;2023-08-17T13:01:27;22.50;62.00
54938;DHT22;52756;52.826;6.214;2023-08-17T13:03:53;22.50;62.00
54938;DHT22;52756;52.826;6.214;2023-08-17T13:06:19;22.60;61.90
54938;DHT22;52756;52.826;6.214;2023-08-17T13:08:45;22.60;61.70
54938;DHT22;52756;52.826;6.214;2023-08-17T13:11:11;22.60;61.70
54938;DHT22;52756;52.826;6.214;2023-08-17T13:13:37;22.70;62.00
54938;DHT22;52756;52.826;6.214;2023-08-17T13:16:03;22.70;62.20
54938;DHT22;52756;52.826;6.214;2023-08-17T13:18:29;22.70;62.50
54938;DHT22;52756;52.826;6.214;2023-08-17T13:20:54;22.80;61.90
54938;DHT22;52756;52.826;6.214;2023-08-17T13:23:20;22.80;62.00
54938;DHT22;52756;52.826;6.214;2023-08-17T13:25:46;22.80;62.30
54938;DHT22;52756;52.826;6.214;2023-08-17T13:28:12;22.80;62.20
54938;DHT22;52756;52.826;6.214;2023-08-17T13:30:40;22.90;62.00
54938;DHT22;52756;52.826;6.214;2023-08-17T13:33:06;22.90;61.70
54938;DHT22;52756;52.826;6.214;2023-08-17T13:35:35;22.90;61.50
54938;DHT22;52756;52.826;6.214;2023-08-17T13:38:01;22.90;61.70
54938;DHT22;52756;52.826;6.214;2023-08-17T13:40:32;22.90;61.50
54938;DHT22;52756;52.826;6.214;2023-08-17T13:42:59;22.80;61.40
54938;DHT22;52756;52.826;6.214;2023-08-17T13:45:26;22.80;61.80
54938;DHT22;52756;52.826;6.214;2023-08-17T13:47:52;22.80;61.70
54938;DHT22;52756;52.826;6.214;2023-08-17T13:50:18;22.80;61.80
54938;DHT22;52756;52.826;6.214;2023-08-17T13:52:44;22.80;61.90
54938;DHT22;52756;52.826;6.214;2023-08-17T13:55:10;22.70;62.00
54938;DHT22;52756;52.826;6.214;2023-08-17T13:57:36;22.70;62.00
54938;DHT22;52756;52.826;6.214;2023-08-17T14:00:03;22.70;61.80
54938;DHT22;52756;52.826;6.214;2023-08-17T14:02:29;22.70;61.90
54938;DHT22;52756;52.826;6.214;2023-08-17T14:04:55;22.70;62.30
54938;DHT22;52756;52.826;6.214;2023-08-17T14:07:21;22.70;62.30
54938;DHT22;52756;52.826;6.214;2023-08-17T14:09:46;22.70;62.50
54938;DHT22;52756;52.826;6.214;2023-08-17T14:12:12;22.70;62.50
54938;DHT22;52756;52.826;6.214;2023-08-17T14:14:38;22.70;62.50
54938;DHT22;52756;52.826;6.214;2023-08-17T14:17:04;22.70;62.60
54938;DHT22;52756;52.826;6.214;2023-08-17T14:19:29;22.70;62.70
54938;DHT22;52756;52.826;6.214;2023-08-17T14:21:56;22.70;62.70
54938;DHT22;52756;52.826;6.214;2023-08-17T14:24:21;22.70;62.90
54938;DHT22;52756;52.826;6.214;2023-08-17T14:26:47;22.70;63.00
54938;DHT22;52756;52.826;6.214;2023-08-17T14:29:13;22.70;62.70
54938;DHT22;52756;52.826;6.214;2023-08-17T14:31:38;22.70;62.70
54938;DHT22;52756;52.826;6.214;2023-08-17T14:34:04;22.60;62.70
54938;DHT22;52756;52.826;6.214;2023-08-17T14:36:30;22.60;63.00
54938;DHT22;52756;52.826;6.214;2023-08-17T14:38:55;22.60;63.10
54938;DHT22;52756;52.826;6.214;2023-08-17T14:41:21;22.50;63.10
54938;DHT22;52756;52.826;6.214;2023-08-17T14:43:47;22.50;63.10
54938;DHT22;52756;52.826;6.214;2023-08-17T14:46:12;22.50;63.30
54938;DHT22;52756;52.826;6.214;2023-08-17T14:48:38;22.40;63.10
54938;DHT22;52756;52.826;6.214;2023-08-17T14:51:04;22.30;63.30
54938;DHT22;52756;52.826;6.214;2023-08-17T14:53:30;22.30;63.90
54938;DHT22;52756;52.826;6.214;2023-08-17T14:55:56;22.30;64.20
54938;DHT22;52756;52.826;6.214;2023-08-17T14:58:21;22.20;63.80
54938;DHT22;52756;52.826;6.214;2023-08-17T15:00:47;22.20;63.90
54938;DHT22;52756;52.826;6.214;2023-08-17T15:03:13;22.10;64.00
54938;DHT22;52756;52.826;6.214;2023-08-17T15:05:38;22.10;64.20
54938;DHT22;52756;52.826;6.214;2023-08-17T15:08:04;22.10;64.50
54938;DHT22;52756;52.826;6.214;2023-08-17T15:10:30;22.00;64.50
54938;DHT22;52756;52.826;6.214;2023-08-17T15:12:58;22.00;64.70
54938;DHT22;52756;52.826;6.214;2023-08-17T15:15:23;22.00;64.50
54938;DHT22;52756;52.826;6.214;2023-08-17T15:17:49;21.90;64.60
54938;DHT22;52756;52.826;6.214;2023-08-17T15:20:14;21.90;64.50
54938;DHT22;52756;52.826;6.214;2023-08-17T15:22:40;21.90;64.80
54938;DHT22;52756;52.826;6.214;2023-08-17T15:25:06;21.80;65.10
54938;DHT22;52756;52.826;6.214;2023-08-17T15:27:32;21.90;65.30
54938;DHT22;52756;52.826;6.214;2023-08-17T15:29:57;21.90;65.40
54938;DHT22;52756;52.826;6.214;2023-08-17T15:32:23;21.90;65.30
54938;DHT22;52756;52.826;6.214;2023-08-17T15:34:49;21.90;65.20
54938;DHT22;52756;52.826;6.214;2023-08-17T15:37:14;21.80;64.90
54938;DHT22;52756;52.826;6.214;2023-08-17T15:39:40;21.90;65.00